Meteo Giornale » Osservazioni meteo Argentina » Santa Rosa Aerodrome
ore: 17:00 - Osservazioni Meteo Santa Rosa Aerodrome
Lat. 36° 34' S Lon. 64° 16' W Alt. 190 metri s.l.m.
21 °C
Sereno
Temp. 24 Ore
7 °C
21 °C
Sud
27.8 Km/h
Dew point -2 °C
Umidità 21 %
Visibilità 10 Km
Il sole sorge alle ore 07:38
Il sole tramonta alle ore 18:56
| Data e Ora | Cielo e Fenomeni | T °C | DP °C | Um. % | Pres. hPa | Vis. km | Vento km/h | |
|---|---|---|---|---|---|---|---|---|
| Oggi h: 17:00 | Sereno | 21 | -2 | 21 | 1017 | 10 | S 27.8 | |
| Oggi h: 16:00 | Sereno | 21 | 0 | 24 | 1017 | 10 | S 24 | |
| Oggi h: 15:00 | Sereno | 21 | 0 | 24 | 1017 | 10 | S 27.8 | |
| Oggi h: 14:00 | Sereno | 20 | 0 | 26 | 1017 | 10 | S 27.8 | |
| Oggi h: 13:00 | Sereno | 19 | 2 | 32 | 1018 | 10 | S/SE 33.3 | |
| Oggi h: 12:00 | Sereno | 19 | 2 | 32 | 1017 | 10 | S/SE 35.2 | |
| Oggi h: 11:00 | Sereno | 18 | 3 | 36 | 1017 | 10 | S/SE 20.3 | |
| Oggi h: 10:00 | Sereno | 13 | 6 | 62 | 1016 | 10 | S 13 | |
| Oggi h: 09:00 | Sereno | 10 | 5 | 71 | 1015 | 10 | S 14.8 | |
| Oggi h: 08:00 | Sereno | 7 | 5 | 87 | 1014 | 10 | N 3.7 | |
| Oggi h: 07:00 | Sereno | 8 | 6 | 87 | 1013 | 10 | N 3.7 | |
| Oggi h: 06:00 | Sereno | 8 | 6 | 87 | 1013 | 10 | N 3.7 | |
| Oggi h: 05:00 | Sereno | 9 | 5 | 75 | 1012 | 10 | N 1.8 | |
| Oggi h: 04:00 | Sereno | 9 | 6 | 81 | 1012 | 10 | N 3.7 | |
| Oggi h: 03:00 | Sereno | 10 | 6 | 76 | 1013 | 10 | N 1.8 | |
| Oggi h: 02:00 | Sereno | 9 | 5 | 75 | 1012 | 10 | N 3.7 | |
| Oggi h: 01:00 | Sereno | 9 | 5 | 75 | 1012 | 10 | N 1.8 | |
| Oggi h: 00:00 | Sereno | 11 | 5 | 66 | 1012 | 10 | N 7.4 | |
| Ieri h: 23:00 | Sereno | 10 | 5 | 71 | 1012 | 10 | NE 16.7 | |
| Ieri h: 22:00 | Sereno | 12 | 5 | 62 | 1012 | 10 | N/NE 7.4 | |
| Ieri h: 21:00 | Sereno | 12 | 4 | 57 | 1012 | 10 | N 5.5 | |
| Ieri h: 20:00 | Sereno | 15 | 6 | 54 | 1011 | 10 | N 3.7 | |
| Ieri h: 19:00 | Sereno | 17 | 5 | 45 | 1011 | 10 | N/NE 14.8 | |
| Ieri h: 18:00 | Sereno | 21 | 3 | 30 | 1010 | 10 | NE 16.7 | |



